Colorado Springs, CO (80919)

8:32 AM MDT on September 22, 2014 (GMT -0600)
At the Orton-Urbina's | Change Station
CLOSE
Current Station
Personal Weather Station
Location: Colorado Springs, CO
Elevation: 6700 ft
Nearby Weather Stations

Elev 6700 ft 38.93 °N, 104.85 °W | Updated 2 minutes ago

Mostly Cloudy
Mostly Cloudy
53.0 °F
Feels Like 53.0 °F
N
1.5
Wind Variable Wind from ENE
Gusts 2.0 mph

Today
High -- | Low -- °F
--% Chance of Precip.
Yesterday
High -- | Low -- °F
Precip. -- in
6:47 AM 6:56 PM
Waning Crescent, 3% visible
Pressure 30.10 in
Visibility 10.0 miles
Clouds Scattered Clouds 1700 ft
Scattered Clouds 3000 ft
Mostly Cloudy 10000 ft
Dew Point 46 °F
Humidity 77%
Rainfall -999.00 in
Snow Depth 0 in , 0 in , 1 in
UV 0 out of 12
Pollen 4.60 out of 12
Ozone Good
PM2.5 Good
Flu Activity Not available.
METAR KAFF 221358Z 11002KT 10SM SCT017 SCT030 BKN100 12/07 A3029 RMK AO2A SLP193 T01240073

More Conditions Fewer Conditions

Pressure 30.10 in
Visibility 10.0 miles
Clouds Scattered Clouds 1700 ft
Scattered Clouds 3000 ft
Mostly Cloudy 10000 ft
Dew Point 46 °F
Humidity 77%
Rainfall -999.00 in
Snow Depth 0 in , 0 in , 1 in
UV 0 out of 12
Pollen 4.60 out of 12
Ozone Good
PM2.5 Good
Flu Activity Not available.
METAR KAFF 221358Z 11002KT 10SM SCT017 SCT030 BKN100 12/07 A3029 RMK AO2A SLP193 T01240073

More Conditions Fewer Conditions

10-Day Weather Forecast

Almanac

Astronomy

Sep. 22, 2014 Rise Set
Actual Time 6:47 AM MDT 6:56 PM MDT
Civil Twilight 6:20 AM MDT 7:22 PM MDT
Nautical Twilight 5:49 AM MDT 7:53 PM MDT
Astronomical Twilight 5:17 AM MDT 8:25 PM MDT
Moon 5:18 AM MDT 6:04 PM MDT
Length of Visible Light 13h 02m
Length of Day
12h 09m
Tomorrow will be 2m 30s shorter.
Waning Crescent, 3% of the Moon is Illuminated
Today
Waning Crescent
Sep 24
New
Oct 1
First Quarter
Oct 8
Full
Oct 15
Last Quarter

Today's Extremes

State Highs State Lows

Community

WunderPhotos

Upload Photos

1,755,448 photos uploaded!

WunderBlogs® & News

By Dr. Jeff Masters
Director of Meteorology, Weather Underground
By Kari Strenfel
Meteorologist, Weather Underground
By Christopher C. Burt
Weather Historian, Weather Underground
September 22, 2014
September 22, 2014
September 22, 2014

Nearby

Air Quality

  Air Quality AQ Index Pollutant
Yesterday Good
OZONE
Yesterday Good
PM2.5
Current Good
OZONE
Current Good
PM2.5
Monday Good
PM2.5
Monday Good
OZONE

Snow Depth

Station Depth Elevation
Park Cone 0 in 9600 ft
Columbine Pass 0 in 9400 ft
Summit Ranch 1 in 9400 ft
Copeland Lake 0 in 8600 ft
Trapper Lake 0 in 9700 ft

Earthquake Activity

City Distance Mag. Time & Date
No recent earthquake activity has been reported nearby.
Minimum magnitude displayed is 2.5.

Coastal Water Temperatures

Place Temperature
No Stations Reporting

Nearby Weather Stations